Mason City Municipal Airport
KMCW : now visible

Airfield :











YOU CAN JOIN US ON...

 
LOGIN :

Register | Disclaimer

   EN    FR    IT 

 









Legend :    VFR   Marginal VFR   IFR   Intensive IFR   Very Intensive IFR
Visi :
Ceiling :
>= 8 km
>= 3000ft
5 to 8 km
1000 to 3000 ft
1500m to 5 km
500 to 1000 ft
800 to 1500m
200 to 500 ft
< 800m
< 200 ft
Symbols :   Thunderstorms  Fog  Heavy snow  Heavy precipitations  Wind > 20 kt






- Airport Elevation : 1213 ft


KMCW - Mason City Municipal

CURRENT METAR :
  • 240053Z AUTO 12011KT 10SM SCT040 OVC055 M09/M12 A3008 RMK AO2 SNB06E37 SLP208 P0000 T10891117

EXPIRED METARs :
  • 232353Z AUTO 14011KT 10SM OVC034 M09/M12 A3010 RMK AO2 SLP213 60000 T10891117 11078 21094 55012
  • 232253Z AUTO 12011KT 10SM BKN080 OVC090 M09/M12 A3008 RMK AO2 SLP206 T10891117

TAF KMCW
Valid from the 24 at 00:00 until the 25 at 00:00 UTC


232332Z 2400/2424 12011KT 6SM -SN BKN070
FM240200 14010KT 4SM -SN BR OVC035
FM240600 15007KT 1 1/2SM -SN BR OVC015
FM241100 00000KT 5SM BR VCSH BKN010
FM241300 34004KT 5SM BR BKN015
FM242100 01009KT P6SM SCT050
KZMP FIR / North America



MET'MAP, your aeronautical weather chart ! - Copyright ORBIFLY December 2007 - Disclaimer

ORBIFLY MET'MAP TEAM :

Programming & Development : Alexandra Zaïnal
Concept & original design : Baudouin d'Aumeries
Assistance for programming : Marc-Olivier Méhu
Technical & hardware support : Manuel Goepfert

Contact : metmap@orbifly.com




SOURCES & CREDITS :

   NOAA       Earth
Advisory